sensor_id;sensor_type;location;lat;lon;timestamp;P1;durP1;ratioP1;P2;durP2;ratioP2
33367;SDS011;19724;51.114;13.906;2022-12-18T00:26:33;83.18;;;37.70;;
33367;SDS011;19724;51.114;13.906;2022-12-18T00:47:30;82.30;;;40.30;;
33367;SDS011;19724;51.114;13.906;2022-12-18T01:06:36;76.80;;;37.40;;
33367;SDS011;19724;51.114;13.906;2022-12-18T01:22:09;74.60;;;32.90;;
33367;SDS011;19724;51.114;13.906;2022-12-18T01:24:34;83.32;;;37.22;;
33367;SDS011;19724;51.114;13.906;2022-12-18T01:27:00;72.82;;;34.40;;
33367;SDS011;19724;51.114;13.906;2022-12-18T01:29:25;76.25;;;35.92;;
33367;SDS011;19724;51.114;13.906;2022-12-18T01:31:54;76.55;;;36.28;;
33367;SDS011;19724;51.114;13.906;2022-12-18T01:34:20;65.05;;;31.27;;
33367;SDS011;19724;51.114;13.906;2022-12-18T01:36:46;73.07;;;32.40;;
33367;SDS011;19724;51.114;13.906;2022-12-18T01:39:12;71.47;;;34.38;;
33367;SDS011;19724;51.114;13.906;2022-12-18T01:41:39;64.57;;;33.30;;
33367;SDS011;19724;51.114;13.906;2022-12-18T01:47:07;66.70;;;32.42;;
33367;SDS011;19724;51.114;13.906;2022-12-18T01:49:33;65.57;;;32.38;;
33367;SDS011;19724;51.114;13.906;2022-12-18T01:51:59;66.75;;;31.02;;
33367;SDS011;19724;51.114;13.906;2022-12-18T01:54:24;73.13;;;32.20;;
33367;SDS011;19724;51.114;13.906;2022-12-18T01:56:50;72.72;;;32.03;;
33367;SDS011;19724;51.114;13.906;2022-12-18T01:59:15;65.97;;;33.70;;
33367;SDS011;19724;51.114;13.906;2022-12-18T02:01:41;73.05;;;32.50;;
33367;SDS011;19724;51.114;13.906;2022-12-18T02:04:25;67.13;;;33.85;;
33367;SDS011;19724;51.114;13.906;2022-12-18T02:06:55;72.35;;;34.75;;
33367;SDS011;19724;51.114;13.906;2022-12-18T02:09:32;74.05;;;35.72;;
33367;SDS011;19724;51.114;13.906;2022-12-18T02:14:44;72.55;;;32.00;;
33367;SDS011;19724;51.114;13.906;2022-12-18T02:17:21;83.95;;;36.58;;
33367;SDS011;19724;51.114;13.906;2022-12-18T02:25:21;100.20;;;39.22;;
33367;SDS011;19724;51.114;13.906;2022-12-18T02:27:59;92.10;;;38.22;;
33367;SDS011;19724;51.114;13.906;2022-12-18T02:30:27;86.53;;;35.28;;
33367;SDS011;19724;51.114;13.906;2022-12-18T02:32:56;107.97;;;38.58;;
33367;SDS011;19724;51.114;13.906;2022-12-18T02:35:24;103.97;;;40.47;;
33367;SDS011;19724;51.114;13.906;2022-12-18T02:37:52;88.18;;;36.15;;
33367;SDS011;19724;51.114;13.906;2022-12-18T02:40:19;113.35;;;39.95;;
33367;SDS011;19724;51.114;13.906;2022-12-18T02:42:45;93.25;;;36.33;;
33367;SDS011;19724;51.114;13.906;2022-12-18T02:45:11;103.18;;;39.70;;
33367;SDS011;19724;51.114;13.906;2022-12-18T02:47:37;109.38;;;35.88;;
33367;SDS011;19724;51.114;13.906;2022-12-18T02:50:19;155.27;;;37.75;;
33367;SDS011;19724;51.114;13.906;2022-12-18T02:52:55;105.00;;;30.88;;
33367;SDS011;19724;51.114;13.906;2022-12-18T03:03:50;76.40;;;32.47;;
33367;SDS011;19724;51.114;13.906;2022-12-18T03:06:24;112.00;;;36.00;;
33367;SDS011;19724;51.114;13.906;2022-12-18T03:09:07;78.00;;;31.55;;
33367;SDS011;19724;51.114;13.906;2022-12-18T03:11:36;74.97;;;29.90;;
33367;SDS011;19724;51.114;13.906;2022-12-18T03:14:25;98.70;;;33.70;;
33367;SDS011;19724;51.114;13.906;2022-12-18T03:16:57;91.45;;;32.45;;
33367;SDS011;19724;51.114;13.906;2022-12-18T03:19:28;86.50;;;33.08;;
33367;SDS011;19724;51.114;13.906;2022-12-18T03:21:56;82.72;;;30.67;;
33367;SDS011;19724;51.114;13.906;2022-12-18T03:24:24;82.72;;;32.30;;
33367;SDS011;19724;51.114;13.906;2022-12-18T03:26:52;94.00;;;33.17;;
33367;SDS011;19724;51.114;13.906;2022-12-18T03:29:21;90.32;;;33.50;;
33367;SDS011;19724;51.114;13.906;2022-12-18T03:31:54;68.35;;;31.08;;
33367;SDS011;19724;51.114;13.906;2022-12-18T03:34:26;84.43;;;32.83;;
33367;SDS011;19724;51.114;13.906;2022-12-18T03:36:58;79.95;;;35.10;;
33367;SDS011;19724;51.114;13.906;2022-12-18T03:39:24;77.72;;;29.00;;
33367;SDS011;19724;51.114;13.906;2022-12-18T03:45:18;63.97;;;28.98;;
33367;SDS011;19724;51.114;13.906;2022-12-18T03:47:27;81.55;;;31.55;;
33367;SDS011;19724;51.114;13.906;2022-12-18T03:50:13;80.18;;;31.50;;
33367;SDS011;19724;51.114;13.906;2022-12-18T03:52:46;80.18;;;29.45;;
33367;SDS011;19724;51.114;13.906;2022-12-18T03:55:43;72.45;;;30.30;;
33367;SDS011;19724;51.114;13.906;2022-12-18T03:58:11;104.22;;;32.45;;
33367;SDS011;19724;51.114;13.906;2022-12-18T04:00:40;62.40;;;28.27;;
33367;SDS011;19724;51.114;13.906;2022-12-18T04:03:06;82.43;;;27.98;;
33367;SDS011;19724;51.114;13.906;2022-12-18T04:05:33;67.70;;;28.33;;
33367;SDS011;19724;51.114;13.906;2022-12-18T04:08:00;68.57;;;28.65;;
33367;SDS011;19724;51.114;13.906;2022-12-18T04:10:26;64.50;;;29.25;;
33367;SDS011;19724;51.114;13.906;2022-12-18T04:12:55;63.75;;;28.23;;
33367;SDS011;19724;51.114;13.906;2022-12-18T04:15:22;60.83;;;26.23;;
33367;SDS011;19724;51.114;13.906;2022-12-18T04:17:48;55.17;;;25.80;;
33367;SDS011;19724;51.114;13.906;2022-12-18T04:20:15;43.42;;;23.83;;
33367;SDS011;19724;51.114;13.906;2022-12-18T04:22:41;66.05;;;28.52;;
33367;SDS011;19724;51.114;13.906;2022-12-18T04:25:07;57.00;;;25.40;;
33367;SDS011;19724;51.114;13.906;2022-12-18T04:27:33;61.20;;;26.70;;
33367;SDS011;19724;51.114;13.906;2022-12-18T04:29:58;61.13;;;26.05;;
33367;SDS011;19724;51.114;13.906;2022-12-18T04:32:24;60.30;;;25.58;;
33367;SDS011;19724;51.114;13.906;2022-12-18T04:34:49;54.08;;;24.10;;
33367;SDS011;19724;51.114;13.906;2022-12-18T04:37:15;53.72;;;24.40;;
33367;SDS011;19724;51.114;13.906;2022-12-18T04:39:40;57.72;;;23.48;;
33367;SDS011;19724;51.114;13.906;2022-12-18T04:42:06;57.38;;;25.65;;
33367;SDS011;19724;51.114;13.906;2022-12-18T04:44:31;55.08;;;26.10;;
33367;SDS011;19724;51.114;13.906;2022-12-18T04:46:57;59.50;;;25.25;;
33367;SDS011;19724;51.114;13.906;2022-12-18T04:49:22;52.33;;;24.65;;
33367;SDS011;19724;51.114;13.906;2022-12-18T04:51:48;50.63;;;24.45;;
33367;SDS011;19724;51.114;13.906;2022-12-18T04:54:13;49.85;;;23.50;;
33367;SDS011;19724;51.114;13.906;2022-12-18T04:56:39;50.78;;;24.00;;
33367;SDS011;19724;51.114;13.906;2022-12-18T04:59:05;48.97;;;23.58;;
33367;SDS011;19724;51.114;13.906;2022-12-18T05:01:30;50.88;;;24.75;;
33367;SDS011;19724;51.114;13.906;2022-12-18T05:03:56;46.72;;;23.42;;
33367;SDS011;19724;51.114;13.906;2022-12-18T05:06:21;44.00;;;23.67;;
33367;SDS011;19724;51.114;13.906;2022-12-18T05:08:47;49.55;;;24.35;;
33367;SDS011;19724;51.114;13.906;2022-12-18T05:11:14;44.65;;;22.30;;
33367;SDS011;19724;51.114;13.906;2022-12-18T05:13:40;48.03;;;21.67;;
33367;SDS011;19724;51.114;13.906;2022-12-18T05:16:07;44.05;;;22.15;;
33367;SDS011;19724;51.114;13.906;2022-12-18T05:18:33;42.67;;;20.55;;
33367;SDS011;19724;51.114;13.906;2022-12-18T05:20:59;44.17;;;22.35;;
33367;SDS011;19724;51.114;13.906;2022-12-18T05:23:24;45.60;;;21.98;;
33367;SDS011;19724;51.114;13.906;2022-12-18T05:25:54;50.20;;;23.17;;
33367;SDS011;19724;51.114;13.906;2022-12-18T05:28:24;42.83;;;21.83;;
33367;SDS011;19724;51.114;13.906;2022-12-18T05:30:53;40.88;;;21.20;;
33367;SDS011;19724;51.114;13.906;2022-12-18T05:33:21;45.78;;;22.48;;
33367;SDS011;19724;51.114;13.906;2022-12-18T05:35:51;46.33;;;21.30;;
33367;SDS011;19724;51.114;13.906;2022-12-18T05:38:17;51.25;;;21.58;;
33367;SDS011;19724;51.114;13.906;2022-12-18T05:40:43;41.80;;;22.13;;
33367;SDS011;19724;51.114;13.906;2022-12-18T05:43:09;51.08;;;24.55;;
33367;SDS011;19724;51.114;13.906;2022-12-18T05:45:37;43.72;;;22.02;;
33367;SDS011;19724;51.114;13.906;2022-12-18T05:48:03;45.22;;;21.40;;
33367;SDS011;19724;51.114;13.906;2022-12-18T05:50:29;47.33;;;23.88;;
33367;SDS011;19724;51.114;13.906;2022-12-18T05:52:54;43.70;;;23.17;;
33367;SDS011;19724;51.114;13.906;2022-12-18T05:55:20;47.17;;;22.27;;
33367;SDS011;19724;51.114;13.906;2022-12-18T05:57:45;49.90;;;24.63;;
33367;SDS011;19724;51.114;13.906;2022-12-18T06:00:11;42.80;;;24.15;;
33367;SDS011;19724;51.114;13.906;2022-12-18T06:02:37;49.65;;;25.25;;
33367;SDS011;19724;51.114;13.906;2022-12-18T06:05:03;53.80;;;24.42;;
33367;SDS011;19724;51.114;13.906;2022-12-18T06:07:29;46.30;;;23.20;;
33367;SDS011;19724;51.114;13.906;2022-12-18T06:09:54;50.42;;;22.48;;
33367;SDS011;19724;51.114;13.906;2022-12-18T06:12:20;50.40;;;22.60;;
33367;SDS011;19724;51.114;13.906;2022-12-18T06:14:46;49.28;;;22.13;;
33367;SDS011;19724;51.114;13.906;2022-12-18T06:17:11;47.30;;;22.65;;
33367;SDS011;19724;51.114;13.906;2022-12-18T06:19:37;52.20;;;23.42;;
33367;SDS011;19724;51.114;13.906;2022-12-18T06:22:02;51.75;;;22.75;;
33367;SDS011;19724;51.114;13.906;2022-12-18T06:24:28;49.53;;;23.25;;
33367;SDS011;19724;51.114;13.906;2022-12-18T06:26:54;48.25;;;24.90;;
33367;SDS011;19724;51.114;13.906;2022-12-18T06:29:20;48.22;;;23.27;;
33367;SDS011;19724;51.114;13.906;2022-12-18T06:31:45;52.05;;;25.33;;
33367;SDS011;19724;51.114;13.906;2022-12-18T06:34:11;49.92;;;23.38;;
33367;SDS011;19724;51.114;13.906;2022-12-18T06:36:36;50.78;;;21.95;;
33367;SDS011;19724;51.114;13.906;2022-12-18T06:39:02;49.80;;;24.73;;
33367;SDS011;19724;51.114;13.906;2022-12-18T06:41:28;53.42;;;23.30;;
33367;SDS011;19724;51.114;13.906;2022-12-18T06:43:53;56.10;;;22.73;;
33367;SDS011;19724;51.114;13.906;2022-12-18T06:46:19;54.72;;;24.63;;
33367;SDS011;19724;51.114;13.906;2022-12-18T06:48:50;50.60;;;24.77;;
33367;SDS011;19724;51.114;13.906;2022-12-18T06:51:19;44.20;;;21.42;;
33367;SDS011;19724;51.114;13.906;2022-12-18T06:53:46;48.35;;;23.20;;
33367;SDS011;19724;51.114;13.906;2022-12-18T06:56:11;53.10;;;24.10;;
33367;SDS011;19724;51.114;13.906;2022-12-18T06:58:46;47.97;;;23.70;;
33367;SDS011;19724;51.114;13.906;2022-12-18T07:01:30;57.17;;;25.48;;
33367;SDS011;19724;51.114;13.906;2022-12-18T07:03:56;55.25;;;23.92;;
33367;SDS011;19724;51.114;13.906;2022-12-18T07:06:23;54.10;;;24.75;;
33367;SDS011;19724;51.114;13.906;2022-12-18T07:08:50;54.38;;;24.70;;
33367;SDS011;19724;51.114;13.906;2022-12-18T07:11:17;50.28;;;25.05;;
33367;SDS011;19724;51.114;13.906;2022-12-18T07:13:43;53.25;;;24.42;;
33367;SDS011;19724;51.114;13.906;2022-12-18T07:16:12;58.35;;;24.20;;
33367;SDS011;19724;51.114;13.906;2022-12-18T07:18:42;52.88;;;25.52;;
33367;SDS011;19724;51.114;13.906;2022-12-18T07:23:36;54.28;;;23.33;;
33367;SDS011;19724;51.114;13.906;2022-12-18T07:26:04;55.67;;;24.17;;
33367;SDS011;19724;51.114;13.906;2022-12-18T08:54:01;46.03;;;24.20;;
33367;SDS011;19724;51.114;13.906;2022-12-18T08:56:27;40.55;;;22.73;;
33367;SDS011;19724;51.114;13.906;2022-12-18T08:58:53;43.25;;;22.88;;
33367;SDS011;19724;51.114;13.906;2022-12-18T09:01:22;41.67;;;22.25;;
33367;SDS011;19724;51.114;13.906;2022-12-18T09:03:55;44.00;;;23.50;;
33367;SDS011;19724;51.114;13.906;2022-12-18T09:06:21;42.45;;;22.67;;
33367;SDS011;19724;51.114;13.906;2022-12-18T09:08:48;40.30;;;22.60;;
33367;SDS011;19724;51.114;13.906;2022-12-18T09:11:24;42.38;;;23.63;;
33367;SDS011;19724;51.114;13.906;2022-12-18T09:13:52;42.70;;;22.30;;
33367;SDS011;19724;51.114;13.906;2022-12-18T09:16:19;43.42;;;23.20;;
33367;SDS011;19724;51.114;13.906;2022-12-18T09:18:45;43.78;;;23.40;;
33367;SDS011;19724;51.114;13.906;2022-12-18T09:21:15;43.45;;;23.45;;
33367;SDS011;19724;51.114;13.906;2022-12-18T09:23:51;43.47;;;25.42;;
33367;SDS011;19724;51.114;13.906;2022-12-18T09:26:18;39.03;;;21.20;;
33367;SDS011;19724;51.114;13.906;2022-12-18T09:28:48;42.35;;;22.83;;
33367;SDS011;19724;51.114;13.906;2022-12-18T09:31:14;40.35;;;22.55;;
33367;SDS011;19724;51.114;13.906;2022-12-18T09:33:40;44.08;;;22.58;;
33367;SDS011;19724;51.114;13.906;2022-12-18T09:36:15;42.10;;;22.63;;
33367;SDS011;19724;51.114;13.906;2022-12-18T09:38:47;40.55;;;23.10;;
33367;SDS011;19724;51.114;13.906;2022-12-18T09:41:26;43.08;;;22.40;;
33367;SDS011;19724;51.114;13.906;2022-12-18T09:46:47;40.88;;;22.95;;
33367;SDS011;19724;51.114;13.906;2022-12-18T09:49:35;43.88;;;22.73;;
33367;SDS011;19724;51.114;13.906;2022-12-18T09:52:12;41.90;;;22.60;;
33367;SDS011;19724;51.114;13.906;2022-12-18T09:54:46;41.10;;;21.60;;
33367;SDS011;19724;51.114;13.906;2022-12-18T09:57:22;38.10;;;21.92;;
33367;SDS011;19724;51.114;13.906;2022-12-18T10:00:14;40.28;;;21.17;;
33367;SDS011;19724;51.114;13.906;2022-12-18T10:02:45;44.38;;;23.10;;
33367;SDS011;19724;51.114;13.906;2022-12-18T10:05:25;36.20;;;22.05;;
33367;SDS011;19724;51.114;13.906;2022-12-18T10:10:48;39.72;;;22.85;;
33367;SDS011;19724;51.114;13.906;2022-12-18T10:13:25;40.22;;;21.33;;
33367;SDS011;19724;51.114;13.906;2022-12-18T10:16:12;37.15;;;22.60;;
33367;SDS011;19724;51.114;13.906;2022-12-18T10:18:48;40.53;;;22.52;;
33367;SDS011;19724;51.114;13.906;2022-12-18T10:21:17;39.65;;;23.00;;
33367;SDS011;19724;51.114;13.906;2022-12-18T10:23:51;36.17;;;21.50;;
33367;SDS011;19724;51.114;13.906;2022-12-18T10:26:29;40.88;;;23.48;;
33367;SDS011;19724;51.114;13.906;2022-12-18T10:28:56;37.85;;;21.52;;
33367;SDS011;19724;51.114;13.906;2022-12-18T10:31:23;39.92;;;21.38;;
33367;SDS011;19724;51.114;13.906;2022-12-18T10:33:49;37.45;;;21.52;;
33367;SDS011;19724;51.114;13.906;2022-12-18T10:36:15;38.22;;;21.50;;
33367;SDS011;19724;51.114;13.906;2022-12-18T10:38:41;35.58;;;20.13;;
33367;SDS011;19724;51.114;13.906;2022-12-18T10:43:46;35.33;;;21.25;;
33367;SDS011;19724;51.114;13.906;2022-12-18T10:46:14;36.38;;;22.13;;
33367;SDS011;19724;51.114;13.906;2022-12-18T10:51:22;38.65;;;20.83;;
33367;SDS011;19724;51.114;13.906;2022-12-18T10:53:51;40.65;;;21.70;;
33367;SDS011;19724;51.114;13.906;2022-12-18T10:56:30;41.33;;;21.63;;
33367;SDS011;19724;51.114;13.906;2022-12-18T10:59:02;45.28;;;23.98;;
33367;SDS011;19724;51.114;13.906;2022-12-18T11:01:49;41.33;;;24.27;;
33367;SDS011;19724;51.114;13.906;2022-12-18T11:04:18;45.45;;;23.17;;
33367;SDS011;19724;51.114;13.906;2022-12-18T11:06:53;38.03;;;21.95;;
33367;SDS011;19724;51.114;13.906;2022-12-18T11:09:24;41.78;;;21.88;;
33367;SDS011;19724;51.114;13.906;2022-12-18T11:11:52;40.03;;;22.70;;
33367;SDS011;19724;51.114;13.906;2022-12-18T11:14:25;47.22;;;22.38;;
33367;SDS011;19724;51.114;13.906;2022-12-18T11:16:52;45.35;;;22.95;;
33367;SDS011;19724;51.114;13.906;2022-12-18T11:19:52;45.58;;;23.70;;
33367;SDS011;19724;51.114;13.906;2022-12-18T11:24:53;42.58;;;22.70;;
33367;SDS011;19724;51.114;13.906;2022-12-18T11:27:22;41.88;;;22.77;;
33367;SDS011;19724;51.114;13.906;2022-12-18T11:29:49;41.45;;;23.55;;
33367;SDS011;19724;51.114;13.906;2022-12-18T11:32:24;44.58;;;22.80;;
33367;SDS011;19724;51.114;13.906;2022-12-18T11:35:18;44.67;;;21.27;;
33367;SDS011;19724;51.114;13.906;2022-12-18T11:38:01;48.15;;;21.42;;
33367;SDS011;19724;51.114;13.906;2022-12-18T11:40:33;42.70;;;22.17;;
33367;SDS011;19724;51.114;13.906;2022-12-18T11:43:19;48.53;;;23.20;;
33367;SDS011;19724;51.114;13.906;2022-12-18T11:49:01;43.55;;;22.08;;
33367;SDS011;19724;51.114;13.906;2022-12-18T11:51:41;46.20;;;22.17;;
33367;SDS011;19724;51.114;13.906;2022-12-18T11:54:13;43.33;;;22.17;;
33367;SDS011;19724;51.114;13.906;2022-12-18T11:56:51;44.92;;;22.45;;
33367;SDS011;19724;51.114;13.906;2022-12-18T12:01:53;39.38;;;22.05;;
33367;SDS011;19724;51.114;13.906;2022-12-18T12:06:59;39.15;;;19.77;;
33367;SDS011;19724;51.114;13.906;2022-12-18T12:12:19;44.25;;;22.02;;
33367;SDS011;19724;51.114;13.906;2022-12-18T12:15:27;36.55;;;19.80;;
33367;SDS011;19724;51.114;13.906;2022-12-18T12:20:49;39.97;;;20.13;;
33367;SDS011;19724;51.114;13.906;2022-12-18T12:23:27;38.97;;;20.15;;
33367;SDS011;19724;51.114;13.906;2022-12-18T12:26:03;37.75;;;19.60;;
33367;SDS011;19724;51.114;13.906;2022-12-18T12:34:34;38.72;;;18.30;;
33367;SDS011;19724;51.114;13.906;2022-12-18T12:39:59;36.65;;;18.30;;
33367;SDS011;19724;51.114;13.906;2022-12-18T12:42:34;37.30;;;18.70;;
33367;SDS011;19724;51.114;13.906;2022-12-18T12:45:29;32.42;;;17.17;;
33367;SDS011;19724;51.114;13.906;2022-12-18T12:47:59;35.70;;;19.30;;
33367;SDS011;19724;51.114;13.906;2022-12-18T12:50:27;33.03;;;18.02;;
33367;SDS011;19724;51.114;13.906;2022-12-18T12:52:58;35.08;;;19.42;;
33367;SDS011;19724;51.114;13.906;2022-12-18T12:55:26;32.38;;;17.90;;
33367;SDS011;19724;51.114;13.906;2022-12-18T13:01:12;35.17;;;19.05;;
33367;SDS011;19724;51.114;13.906;2022-12-18T13:06:52;36.63;;;19.90;;
33367;SDS011;19724;51.114;13.906;2022-12-18T13:09:25;37.60;;;19.27;;
33367;SDS011;19724;51.114;13.906;2022-12-18T13:11:55;41.75;;;19.08;;
33367;SDS011;19724;51.114;13.906;2022-12-18T13:14:47;34.72;;;20.20;;
33367;SDS011;19724;51.114;13.906;2022-12-18T13:17:16;36.03;;;17.63;;
33367;SDS011;19724;51.114;13.906;2022-12-18T13:20:07;32.47;;;18.65;;
33367;SDS011;19724;51.114;13.906;2022-12-18T13:24:58;39.92;;;20.27;;
33367;SDS011;19724;51.114;13.906;2022-12-18T13:30:40;40.15;;;21.73;;
33367;SDS011;19724;51.114;13.906;2022-12-18T13:35:42;36.88;;;20.17;;
33367;SDS011;19724;51.114;13.906;2022-12-18T13:38:20;39.00;;;20.20;;
33367;SDS011;19724;51.114;13.906;2022-12-18T13:45:50;32.42;;;18.77;;
33367;SDS011;19724;51.114;13.906;2022-12-18T13:48:26;35.08;;;18.88;;
33367;SDS011;19724;51.114;13.906;2022-12-18T13:50:55;38.25;;;21.23;;
33367;SDS011;19724;51.114;13.906;2022-12-18T13:53:39;35.97;;;17.70;;
33367;SDS011;19724;51.114;13.906;2022-12-18T13:56:09;31.50;;;17.13;;
33367;SDS011;19724;51.114;13.906;2022-12-18T13:58:43;42.38;;;21.80;;
33367;SDS011;19724;51.114;13.906;2022-12-18T14:01:21;37.92;;;19.85;;
33367;SDS011;19724;51.114;13.906;2022-12-18T14:03:47;33.25;;;18.65;;
33367;SDS011;19724;51.114;13.906;2022-12-18T14:06:13;35.10;;;19.20;;
33367;SDS011;19724;51.114;13.906;2022-12-18T14:08:39;31.13;;;17.65;;
33367;SDS011;19724;51.114;13.906;2022-12-18T14:11:06;34.45;;;17.77;;
33367;SDS011;19724;51.114;13.906;2022-12-18T14:13:42;35.38;;;17.42;;
33367;SDS011;19724;51.114;13.906;2022-12-18T14:16:11;34.35;;;17.23;;
33367;SDS011;19724;51.114;13.906;2022-12-18T14:18:53;37.15;;;18.33;;
33367;SDS011;19724;51.114;13.906;2022-12-18T14:21:27;32.88;;;16.77;;
33367;SDS011;19724;51.114;13.906;2022-12-18T14:24:04;33.03;;;17.45;;
33367;SDS011;19724;51.114;13.906;2022-12-18T14:26:32;29.48;;;14.95;;
33367;SDS011;19724;51.114;13.906;2022-12-18T14:29:00;31.38;;;17.92;;
33367;SDS011;19724;51.114;13.906;2022-12-18T14:31:43;31.70;;;16.67;;
33367;SDS011;19724;51.114;13.906;2022-12-18T14:34:14;33.50;;;18.00;;
33367;SDS011;19724;51.114;13.906;2022-12-18T14:36:51;38.38;;;18.52;;
33367;SDS011;19724;51.114;13.906;2022-12-18T14:39:18;42.85;;;19.67;;
33367;SDS011;19724;51.114;13.906;2022-12-18T14:41:44;37.83;;;19.30;;
33367;SDS011;19724;51.114;13.906;2022-12-18T14:44:11;41.15;;;18.95;;
33367;SDS011;19724;51.114;13.906;2022-12-18T14:46:47;33.90;;;17.77;;
33367;SDS011;19724;51.114;13.906;2022-12-18T14:51:57;36.03;;;17.80;;
33367;SDS011;19724;51.114;13.906;2022-12-18T14:54:24;41.58;;;19.95;;
33367;SDS011;19724;51.114;13.906;2022-12-18T14:56:56;42.47;;;20.77;;
33367;SDS011;19724;51.114;13.906;2022-12-18T14:59:44;50.88;;;24.33;;
33367;SDS011;19724;51.114;13.906;2022-12-18T15:02:21;38.45;;;20.50;;
33367;SDS011;19724;51.114;13.906;2022-12-18T15:04:59;41.67;;;21.65;;
33367;SDS011;19724;51.114;13.906;2022-12-18T15:07:26;45.28;;;22.52;;
33367;SDS011;19724;51.114;13.906;2022-12-18T15:12:43;45.15;;;22.95;;
33367;SDS011;19724;51.114;13.906;2022-12-18T15:18:01;38.58;;;21.00;;
33367;SDS011;19724;51.114;13.906;2022-12-18T15:23:14;46.53;;;21.20;;
33367;SDS011;19724;51.114;13.906;2022-12-18T15:25:45;40.28;;;20.17;;
33367;SDS011;19724;51.114;13.906;2022-12-18T15:28:17;47.53;;;22.73;;
33367;SDS011;19724;51.114;13.906;2022-12-18T15:30:59;54.17;;;22.00;;
33367;SDS011;19724;51.114;13.906;2022-12-18T15:33:30;43.20;;;22.00;;
33367;SDS011;19724;51.114;13.906;2022-12-18T15:35:59;39.38;;;20.65;;
33367;SDS011;19724;51.114;13.906;2022-12-18T15:38:26;43.55;;;20.25;;
33367;SDS011;19724;51.114;13.906;2022-12-18T15:40:52;45.92;;;22.45;;
33367;SDS011;19724;51.114;13.906;2022-12-18T15:43:20;48.15;;;21.42;;
33367;SDS011;19724;51.114;13.906;2022-12-18T15:46:09;59.20;;;26.42;;
33367;SDS011;19724;51.114;13.906;2022-12-18T15:48:41;62.17;;;30.52;;
33367;SDS011;19724;51.114;13.906;2022-12-18T15:51:18;52.58;;;26.45;;
33367;SDS011;19724;51.114;13.906;2022-12-18T15:53:47;44.38;;;21.73;;
33367;SDS011;19724;51.114;13.906;2022-12-18T15:56:15;44.85;;;22.55;;
33367;SDS011;19724;51.114;13.906;2022-12-18T15:59:00;49.50;;;22.30;;
33367;SDS011;19724;51.114;13.906;2022-12-18T16:01:27;38.88;;;19.98;;
33367;SDS011;19724;51.114;13.906;2022-12-18T16:03:57;39.63;;;20.02;;
33367;SDS011;19724;51.114;13.906;2022-12-18T16:06:22;48.17;;;21.92;;
33367;SDS011;19724;51.114;13.906;2022-12-18T16:08:48;43.90;;;21.25;;
33367;SDS011;19724;51.114;13.906;2022-12-18T16:11:20;43.92;;;21.75;;
33367;SDS011;19724;51.114;13.906;2022-12-18T16:14:17;39.90;;;20.40;;
33367;SDS011;19724;51.114;13.906;2022-12-18T16:16:46;43.80;;;20.90;;
33367;SDS011;19724;51.114;13.906;2022-12-18T16:19:12;41.97;;;20.40;;
33367;SDS011;19724;51.114;13.906;2022-12-18T16:21:38;44.05;;;20.80;;
33367;SDS011;19724;51.114;13.906;2022-12-18T16:24:04;36.58;;;19.13;;
33367;SDS011;19724;51.114;13.906;2022-12-18T16:26:30;40.72;;;20.83;;
33367;SDS011;19724;51.114;13.906;2022-12-18T16:28:55;44.85;;;21.92;;
33367;SDS011;19724;51.114;13.906;2022-12-18T16:31:21;54.67;;;24.23;;
33367;SDS011;19724;51.114;13.906;2022-12-18T16:33:46;45.42;;;21.40;;
33367;SDS011;19724;51.114;13.906;2022-12-18T16:36:12;39.33;;;21.70;;
33367;SDS011;19724;51.114;13.906;2022-12-18T16:38:37;43.80;;;21.60;;
33367;SDS011;19724;51.114;13.906;2022-12-18T16:41:06;47.90;;;22.17;;
33367;SDS011;19724;51.114;13.906;2022-12-18T16:43:56;45.00;;;22.27;;
33367;SDS011;19724;51.114;13.906;2022-12-18T16:46:22;57.80;;;25.65;;
33367;SDS011;19724;51.114;13.906;2022-12-18T16:49:04;48.15;;;22.88;;
33367;SDS011;19724;51.114;13.906;2022-12-18T16:51:36;47.42;;;24.65;;
33367;SDS011;19724;51.114;13.906;2022-12-18T16:54:04;48.90;;;24.63;;
33367;SDS011;19724;51.114;13.906;2022-12-18T16:56:30;53.05;;;24.10;;
33367;SDS011;19724;51.114;13.906;2022-12-18T16:59:00;45.65;;;24.75;;
33367;SDS011;19724;51.114;13.906;2022-12-18T17:01:28;49.22;;;24.33;;
33367;SDS011;19724;51.114;13.906;2022-12-18T17:03:57;45.88;;;24.52;;
33367;SDS011;19724;51.114;13.906;2022-12-18T17:06:26;50.78;;;24.50;;
33367;SDS011;19724;51.114;13.906;2022-12-18T17:09:03;57.88;;;24.73;;
33367;SDS011;19724;51.114;13.906;2022-12-18T17:11:33;47.28;;;23.30;;
33367;SDS011;19724;51.114;13.906;2022-12-18T17:14:05;53.78;;;26.40;;
33367;SDS011;19724;51.114;13.906;2022-12-18T17:16:31;56.00;;;25.35;;
33367;SDS011;19724;51.114;13.906;2022-12-18T17:18:57;52.58;;;24.08;;
33367;SDS011;19724;51.114;13.906;2022-12-18T17:21:23;50.95;;;25.67;;
33367;SDS011;19724;51.114;13.906;2022-12-18T17:23:48;63.60;;;28.15;;
33367;SDS011;19724;51.114;13.906;2022-12-18T17:26:14;63.40;;;26.42;;
33367;SDS011;19724;51.114;13.906;2022-12-18T17:28:40;49.42;;;25.17;;
33367;SDS011;19724;51.114;13.906;2022-12-18T17:31:13;51.25;;;25.20;;
33367;SDS011;19724;51.114;13.906;2022-12-18T17:37:03;56.10;;;25.00;;
33367;SDS011;19724;51.114;13.906;2022-12-18T17:39:29;54.25;;;24.33;;
33367;SDS011;19724;51.114;13.906;2022-12-18T17:41:55;54.00;;;26.77;;
33367;SDS011;19724;51.114;13.906;2022-12-18T17:44:21;60.97;;;27.05;;
33367;SDS011;19724;51.114;13.906;2022-12-18T17:46:47;50.95;;;23.02;;
33367;SDS011;19724;51.114;13.906;2022-12-18T17:49:12;56.25;;;25.00;;
33367;SDS011;19724;51.114;13.906;2022-12-18T17:51:38;59.28;;;27.45;;
33367;SDS011;19724;51.114;13.906;2022-12-18T17:54:06;50.30;;;24.73;;
33367;SDS011;19724;51.114;13.906;2022-12-18T17:56:31;49.67;;;24.67;;
33367;SDS011;19724;51.114;13.906;2022-12-18T17:58:57;59.67;;;26.52;;
33367;SDS011;19724;51.114;13.906;2022-12-18T18:01:23;59.88;;;27.15;;
33367;SDS011;19724;51.114;13.906;2022-12-18T18:03:50;51.38;;;22.42;;
33367;SDS011;19724;51.114;13.906;2022-12-18T18:06:16;57.33;;;26.30;;
33367;SDS011;19724;51.114;13.906;2022-12-18T18:08:42;49.15;;;23.85;;
33367;SDS011;19724;51.114;13.906;2022-12-18T18:11:09;51.40;;;24.75;;
33367;SDS011;19724;51.114;13.906;2022-12-18T18:13:56;50.53;;;23.80;;
33367;SDS011;19724;51.114;13.906;2022-12-18T18:16:25;49.47;;;23.75;;
33367;SDS011;19724;51.114;13.906;2022-12-18T18:18:58;58.03;;;25.48;;
33367;SDS011;19724;51.114;13.906;2022-12-18T18:21:25;51.83;;;22.08;;
33367;SDS011;19724;51.114;13.906;2022-12-18T18:23:51;58.47;;;24.80;;
33367;SDS011;19724;51.114;13.906;2022-12-18T18:26:17;56.38;;;24.73;;
33367;SDS011;19724;51.114;13.906;2022-12-18T18:28:42;54.60;;;25.80;;
33367;SDS011;19724;51.114;13.906;2022-12-18T18:31:08;59.05;;;27.35;;
33367;SDS011;19724;51.114;13.906;2022-12-18T18:33:34;55.05;;;26.33;;
33367;SDS011;19724;51.114;13.906;2022-12-18T18:36:00;58.65;;;26.33;;
33367;SDS011;19724;51.114;13.906;2022-12-18T18:38:26;52.10;;;25.35;;
33367;SDS011;19724;51.114;13.906;2022-12-18T18:40:59;55.90;;;27.75;;